sensor_id;sensor_type;location;lat;lon;timestamp;pressure;altitude;pressure_sealevel;temperature;humidity
74403;BME280;62837;51.082;13.744;2023-04-15T00:00:08;99222.10;;;8.93;80.27
74403;BME280;62837;51.082;13.744;2023-04-15T00:02:42;99222.04;;;8.94;79.45
74403;BME280;62837;51.082;13.744;2023-04-15T00:05:14;99224.35;;;8.91;79.47
74403;BME280;62837;51.082;13.744;2023-04-15T00:07:45;99226.86;;;8.88;79.62
74403;BME280;62837;51.082;13.744;2023-04-15T00:10:16;99228.30;;;8.89;79.55
74403;BME280;62837;51.082;13.744;2023-04-15T00:12:47;99227.56;;;8.95;79.98
74403;BME280;62837;51.082;13.744;2023-04-15T00:15:18;99217.95;;;8.96;79.26
74403;BME280;62837;51.082;13.744;2023-04-15T00:17:50;99216.79;;;8.94;79.14
74403;BME280;62837;51.082;13.744;2023-04-15T00:20:21;99220.63;;;8.85;79.09
74403;BME280;62837;51.082;13.744;2023-04-15T00:22:52;99221.73;;;8.82;79.89
74403;BME280;62837;51.082;13.744;2023-04-15T00:25:23;99220.58;;;8.85;79.84
74403;BME280;62837;51.082;13.744;2023-04-15T00:27:53;99216.84;;;8.86;79.44
74403;BME280;62837;51.082;13.744;2023-04-15T00:30:24;99212.30;;;8.78;79.55
74403;BME280;62837;51.082;13.744;2023-04-15T00:32:56;99216.75;;;8.74;79.97
74403;BME280;62837;51.082;13.744;2023-04-15T00:35:26;99212.64;;;8.73;79.84
74403;BME280;62837;51.082;13.744;2023-04-15T00:37:57;99212.38;;;8.70;79.85
74403;BME280;62837;51.082;13.744;2023-04-15T00:40:28;99210.30;;;8.66;79.65
74403;BME280;62837;51.082;13.744;2023-04-15T00:43:00;99208.86;;;8.67;79.94
74403;BME280;62837;51.082;13.744;2023-04-15T00:45:31;99206.13;;;8.67;79.90
74403;BME280;62837;51.082;13.744;2023-04-15T00:48:02;99206.45;;;8.69;80.02
74403;BME280;62837;51.082;13.744;2023-04-15T00:50:33;99204.15;;;8.74;80.41
74403;BME280;62837;51.082;13.744;2023-04-15T00:53:04;99203.53;;;8.82;80.12
74403;BME280;62837;51.082;13.744;2023-04-15T00:55:35;99199.57;;;8.90;79.81
74403;BME280;62837;51.082;13.744;2023-04-15T00:58:07;99200.21;;;8.95;79.90
74403;BME280;62837;51.082;13.744;2023-04-15T01:00:37;99195.95;;;8.94;79.42
74403;BME280;62837;51.082;13.744;2023-04-15T01:03:09;99198.36;;;8.93;79.41
74403;BME280;62837;51.082;13.744;2023-04-15T01:05:40;99197.61;;;8.86;79.38
74403;BME280;62837;51.082;13.744;2023-04-15T01:08:11;99191.08;;;8.89;79.68
74403;BME280;62837;51.082;13.744;2023-04-15T01:10:43;99188.77;;;8.96;79.52
74403;BME280;62837;51.082;13.744;2023-04-15T01:13:14;99190.39;;;8.94;78.87
74403;BME280;62837;51.082;13.744;2023-04-15T01:15:45;99185.70;;;8.88;78.92
74403;BME280;62837;51.082;13.744;2023-04-15T01:18:16;99184.79;;;8.79;79.24
74403;BME280;62837;51.082;13.744;2023-04-15T01:20:47;99186.71;;;8.75;79.26
74403;BME280;62837;51.082;13.744;2023-04-15T01:23:18;99185.99;;;8.78;79.99
74403;BME280;62837;51.082;13.744;2023-04-15T01:25:51;99183.63;;;8.79;79.04
74403;BME280;62837;51.082;13.744;2023-04-15T01:28:23;99186.00;;;8.78;79.84
74403;BME280;62837;51.082;13.744;2023-04-15T01:31:07;99183.52;;;8.84;79.57
74403;BME280;62837;51.082;13.744;2023-04-15T01:33:37;99177.27;;;8.87;79.79
74403;BME280;62837;51.082;13.744;2023-04-15T01:36:09;99172.88;;;8.85;79.29
74403;BME280;62837;51.082;13.744;2023-04-15T01:38:40;99170.19;;;8.82;79.66
74403;BME280;62837;51.082;13.744;2023-04-15T01:41:11;99170.76;;;8.79;79.47
74403;BME280;62837;51.082;13.744;2023-04-15T01:43:43;99171.91;;;8.74;79.47
74403;BME280;62837;51.082;13.744;2023-04-15T01:46:14;99175.38;;;8.76;79.80
74403;BME280;62837;51.082;13.744;2023-04-15T01:48:44;99179.95;;;8.81;79.78
74403;BME280;62837;51.082;13.744;2023-04-15T01:51:15;99171.99;;;8.90;80.07
74403;BME280;62837;51.082;13.744;2023-04-15T01:53:46;99168.40;;;9.02;79.76
74403;BME280;62837;51.082;13.744;2023-04-15T01:56:17;99166.26;;;9.04;79.20
74403;BME280;62837;51.082;13.744;2023-04-15T01:58:48;99163.61;;;9.07;79.00
74403;BME280;62837;51.082;13.744;2023-04-15T02:01:19;99162.31;;;9.05;79.03
74403;BME280;62837;51.082;13.744;2023-04-15T02:03:50;99156.77;;;9.04;78.72
74403;BME280;62837;51.082;13.744;2023-04-15T02:06:21;99149.37;;;9.03;78.71
74403;BME280;62837;51.082;13.744;2023-04-15T02:08:53;99148.06;;;9.00;79.10
74403;BME280;62837;51.082;13.744;2023-04-15T02:11:23;99148.57;;;8.96;79.01
74403;BME280;62837;51.082;13.744;2023-04-15T02:13:54;99149.83;;;8.96;78.90
74403;BME280;62837;51.082;13.744;2023-04-15T02:16:27;99146.27;;;8.97;79.11
74403;BME280;62837;51.082;13.744;2023-04-15T02:18:58;99146.75;;;9.00;78.90
74403;BME280;62837;51.082;13.744;2023-04-15T02:21:29;99140.82;;;9.02;79.30
74403;BME280;62837;51.082;13.744;2023-04-15T02:24:00;99142.51;;;9.03;78.88
74403;BME280;62837;51.082;13.744;2023-04-15T02:26:32;99142.29;;;9.02;78.97
74403;BME280;62837;51.082;13.744;2023-04-15T02:29:04;99142.58;;;8.99;78.77
74403;BME280;62837;51.082;13.744;2023-04-15T02:31:35;99138.05;;;8.92;78.57
74403;BME280;62837;51.082;13.744;2023-04-15T02:34:09;99135.06;;;8.83;78.86
74403;BME280;62837;51.082;13.744;2023-04-15T02:36:40;99132.23;;;8.71;79.23
74403;BME280;62837;51.082;13.744;2023-04-15T02:39:10;99138.30;;;8.66;79.32
74403;BME280;62837;51.082;13.744;2023-04-15T02:41:41;99131.43;;;8.63;79.77
74403;BME280;62837;51.082;13.744;2023-04-15T02:44:15;99135.61;;;8.59;79.58
74403;BME280;62837;51.082;13.744;2023-04-15T02:46:49;99138.84;;;8.54;79.96
74403;BME280;62837;51.082;13.744;2023-04-15T02:49:22;99144.33;;;8.53;80.11
74403;BME280;62837;51.082;13.744;2023-04-15T02:51:54;99149.76;;;8.51;80.47
74403;BME280;62837;51.082;13.744;2023-04-15T02:54:25;99150.52;;;8.56;80.37
74403;BME280;62837;51.082;13.744;2023-04-15T02:56:57;99144.87;;;8.61;80.27
74403;BME280;62837;51.082;13.744;2023-04-15T02:59:28;99151.81;;;8.67;80.07
74403;BME280;62837;51.082;13.744;2023-04-15T03:01:59;99144.13;;;8.73;80.25
74403;BME280;62837;51.082;13.744;2023-04-15T03:04:30;99141.82;;;8.72;79.52
74403;BME280;62837;51.082;13.744;2023-04-15T03:07:00;99134.64;;;8.73;79.89
74403;BME280;62837;51.082;13.744;2023-04-15T03:09:31;99133.27;;;8.70;79.72
74403;BME280;62837;51.082;13.744;2023-04-15T03:12:04;99135.20;;;8.68;79.91
74403;BME280;62837;51.082;13.744;2023-04-15T03:14:34;99123.60;;;8.62;80.04
74403;BME280;62837;51.082;13.744;2023-04-15T03:17:05;99135.55;;;8.62;80.11
74403;BME280;62837;51.082;13.744;2023-04-15T03:19:36;99131.41;;;8.67;80.33
74403;BME280;62837;51.082;13.744;2023-04-15T03:22:07;99127.64;;;8.72;80.14
74403;BME280;62837;51.082;13.744;2023-04-15T03:24:37;99126.69;;;8.75;79.83
74403;BME280;62837;51.082;13.744;2023-04-15T03:27:08;99123.29;;;8.73;80.05
74403;BME280;62837;51.082;13.744;2023-04-15T03:29:39;99124.52;;;8.70;80.06
74403;BME280;62837;51.082;13.744;2023-04-15T03:32:10;99120.80;;;8.66;79.90
74403;BME280;62837;51.082;13.744;2023-04-15T03:34:41;99118.40;;;8.60;80.22
74403;BME280;62837;51.082;13.744;2023-04-15T03:37:12;99117.10;;;8.56;80.54
74403;BME280;62837;51.082;13.744;2023-04-15T03:39:42;99119.23;;;8.55;80.30
74403;BME280;62837;51.082;13.744;2023-04-15T03:42:13;99116.70;;;8.52;80.43
74403;BME280;62837;51.082;13.744;2023-04-15T03:44:44;99114.58;;;8.50;80.34
74403;BME280;62837;51.082;13.744;2023-04-15T03:47:14;99106.69;;;8.48;80.43
74403;BME280;62837;51.082;13.744;2023-04-15T03:49:45;99104.01;;;8.50;80.42
74403;BME280;62837;51.082;13.744;2023-04-15T03:52:16;99102.80;;;8.49;80.46
74403;BME280;62837;51.082;13.744;2023-04-15T03:54:47;99104.49;;;8.47;80.80
74403;BME280;62837;51.082;13.744;2023-04-15T03:57:18;99101.88;;;8.49;80.50
74403;BME280;62837;51.082;13.744;2023-04-15T03:59:48;99098.76;;;8.47;80.67
74403;BME280;62837;51.082;13.744;2023-04-15T04:02:19;99096.23;;;8.49;80.84
74403;BME280;62837;51.082;13.744;2023-04-15T04:04:52;99097.70;;;8.52;80.64
74403;BME280;62837;51.082;13.744;2023-04-15T04:07:23;99096.93;;;8.53;81.02
74403;BME280;62837;51.082;13.744;2023-04-15T04:09:55;99097.30;;;8.60;80.86
74403;BME280;62837;51.082;13.744;2023-04-15T04:12:26;99106.05;;;8.67;80.66
74403;BME280;62837;51.082;13.744;2023-04-15T04:14:57;99115.58;;;8.71;80.81
74403;BME280;62837;51.082;13.744;2023-04-15T04:17:28;99121.69;;;8.79;80.55
74403;BME280;62837;51.082;13.744;2023-04-15T04:19:58;99113.13;;;8.84;80.69
74403;BME280;62837;51.082;13.744;2023-04-15T04:22:29;99109.02;;;8.96;80.75
74403;BME280;62837;51.082;13.744;2023-04-15T04:25:00;99106.69;;;9.04;80.49
74403;BME280;62837;51.082;13.744;2023-04-15T04:27:31;99103.17;;;9.09;80.04
74403;BME280;62837;51.082;13.744;2023-04-15T04:30:02;99105.08;;;9.11;79.87
74403;BME280;62837;51.082;13.744;2023-04-15T04:32:33;99102.89;;;9.11;79.62
74403;BME280;62837;51.082;13.744;2023-04-15T04:35:04;99112.18;;;9.05;79.65
74403;BME280;62837;51.082;13.744;2023-04-15T04:37:35;99107.38;;;9.00;79.69
74403;BME280;62837;51.082;13.744;2023-04-15T04:40:08;99113.95;;;8.98;79.84
74403;BME280;62837;51.082;13.744;2023-04-15T04:42:39;99115.82;;;8.97;79.64
74403;BME280;62837;51.082;13.744;2023-04-15T04:45:10;99113.54;;;8.93;79.62
74403;BME280;62837;51.082;13.744;2023-04-15T04:47:41;99114.49;;;8.86;79.72
74403;BME280;62837;51.082;13.744;2023-04-15T04:50:12;99120.84;;;8.89;80.20
74403;BME280;62837;51.082;13.744;2023-04-15T04:52:43;99122.80;;;8.91;79.81
74403;BME280;62837;51.082;13.744;2023-04-15T04:55:14;99122.00;;;8.90;80.09
74403;BME280;62837;51.082;13.744;2023-04-15T04:57:45;99123.42;;;8.91;79.75
74403;BME280;62837;51.082;13.744;2023-04-15T05:00:17;99123.38;;;8.91;80.10
74403;BME280;62837;51.082;13.744;2023-04-15T05:02:47;99123.67;;;8.96;80.10
74403;BME280;62837;51.082;13.744;2023-04-15T05:05:18;99131.55;;;9.01;80.32
74403;BME280;62837;51.082;13.744;2023-04-15T05:07:49;99129.92;;;9.08;79.97
74403;BME280;62837;51.082;13.744;2023-04-15T05:10:20;99130.20;;;9.12;80.35
74403;BME280;62837;51.082;13.744;2023-04-15T05:12:51;99133.94;;;9.20;79.99
74403;BME280;62837;51.082;13.744;2023-04-15T05:15:22;99127.63;;;9.24;79.37
74403;BME280;62837;51.082;13.744;2023-04-15T05:17:52;99129.23;;;9.20;79.63
74403;BME280;62837;51.082;13.744;2023-04-15T05:20:23;99134.92;;;9.22;79.53
74403;BME280;62837;51.082;13.744;2023-04-15T05:22:54;99127.13;;;9.22;79.31
74403;BME280;62837;51.082;13.744;2023-04-15T05:25:25;99129.49;;;9.22;79.70
74403;BME280;62837;51.082;13.744;2023-04-15T05:27:56;99133.05;;;9.25;79.57
74403;BME280;62837;51.082;13.744;2023-04-15T05:30:26;99132.42;;;9.29;79.43
74403;BME280;62837;51.082;13.744;2023-04-15T05:32:57;99134.44;;;9.32;79.66
74403;BME280;62837;51.082;13.744;2023-04-15T05:35:28;99139.10;;;9.32;79.19
74403;BME280;62837;51.082;13.744;2023-04-15T05:37:58;99139.06;;;9.27;79.05
74403;BME280;62837;51.082;13.744;2023-04-15T05:40:30;99143.53;;;9.22;79.38
74403;BME280;62837;51.082;13.744;2023-04-15T05:43:01;99143.73;;;9.16;79.58
74403;BME280;62837;51.082;13.744;2023-04-15T05:45:32;99144.18;;;9.10;79.61
74403;BME280;62837;51.082;13.744;2023-04-15T05:48:02;99144.92;;;9.01;79.91
74403;BME280;62837;51.082;13.744;2023-04-15T05:50:33;99155.13;;;8.97;80.11
74403;BME280;62837;51.082;13.744;2023-04-15T05:53:04;99157.51;;;8.96;79.91
74403;BME280;62837;51.082;13.744;2023-04-15T05:55:34;99160.58;;;8.95;80.37
74403;BME280;62837;51.082;13.744;2023-04-15T05:58:05;99167.86;;;8.99;80.53
74403;BME280;62837;51.082;13.744;2023-04-15T06:00:36;99164.66;;;9.06;80.45
74403;BME280;62837;51.082;13.744;2023-04-15T06:03:07;99167.77;;;9.10;80.26
74403;BME280;62837;51.082;13.744;2023-04-15T06:05:37;99171.77;;;9.10;80.35
74403;BME280;62837;51.082;13.744;2023-04-15T06:08:09;99170.50;;;9.13;80.55
74403;BME280;62837;51.082;13.744;2023-04-15T06:10:39;99175.55;;;9.24;80.54
74403;BME280;62837;51.082;13.744;2023-04-15T06:13:10;99178.71;;;9.32;80.07
74403;BME280;62837;51.082;13.744;2023-04-15T06:15:41;99180.77;;;9.38;79.87
74403;BME280;62837;51.082;13.744;2023-04-15T06:18:12;99182.40;;;9.42;79.80
74403;BME280;62837;51.082;13.744;2023-04-15T06:20:43;99179.08;;;9.39;79.34
74403;BME280;62837;51.082;13.744;2023-04-15T06:23:13;99188.90;;;9.37;79.46
74403;BME280;62837;51.082;13.744;2023-04-15T06:25:44;99185.40;;;9.35;79.64
74403;BME280;62837;51.082;13.744;2023-04-15T06:28:15;99181.81;;;9.38;79.63
74403;BME280;62837;51.082;13.744;2023-04-15T06:30:46;99183.39;;;9.44;79.58
74403;BME280;62837;51.082;13.744;2023-04-15T06:33:16;99182.42;;;9.51;79.67
74403;BME280;62837;51.082;13.744;2023-04-15T06:35:47;99184.08;;;9.60;79.67
74403;BME280;62837;51.082;13.744;2023-04-15T06:38:19;99187.34;;;9.69;79.37
74403;BME280;62837;51.082;13.744;2023-04-15T06:40:50;99186.42;;;9.73;79.04
74403;BME280;62837;51.082;13.744;2023-04-15T06:43:21;99189.10;;;9.76;79.14
74403;BME280;62837;51.082;13.744;2023-04-15T06:45:52;99186.60;;;9.79;78.64
74403;BME280;62837;51.082;13.744;2023-04-15T06:48:23;99195.08;;;9.87;78.52
74403;BME280;62837;51.082;13.744;2023-04-15T06:50:54;99198.83;;;9.94;78.70
74403;BME280;62837;51.082;13.744;2023-04-15T06:53:26;99202.17;;;10.02;78.38
74403;BME280;62837;51.082;13.744;2023-04-15T06:55:57;99197.10;;;10.09;78.23
74403;BME280;62837;51.082;13.744;2023-04-15T06:58:28;99197.98;;;10.14;77.96
74403;BME280;62837;51.082;13.744;2023-04-15T07:00:59;99202.11;;;10.17;77.85
74403;BME280;62837;51.082;13.744;2023-04-15T07:03:30;99210.02;;;10.19;77.98
74403;BME280;62837;51.082;13.744;2023-04-15T07:06:01;99213.45;;;10.22;77.81
74403;BME280;62837;51.082;13.744;2023-04-15T07:08:35;99210.65;;;10.21;77.48
74403;BME280;62837;51.082;13.744;2023-04-15T07:11:06;99210.73;;;10.18;77.49
74403;BME280;62837;51.082;13.744;2023-04-15T07:13:37;99212.38;;;10.14;77.74
74403;BME280;62837;51.082;13.744;2023-04-15T07:16:08;99217.48;;;10.16;77.64
74403;BME280;62837;51.082;13.744;2023-04-15T07:18:39;99219.91;;;10.15;77.60
74403;BME280;62837;51.082;13.744;2023-04-15T07:21:09;99227.06;;;10.15;77.55
74403;BME280;62837;51.082;13.744;2023-04-15T07:23:40;99227.05;;;10.16;77.56
74403;BME280;62837;51.082;13.744;2023-04-15T07:26:11;99229.02;;;10.20;77.72
74403;BME280;62837;51.082;13.744;2023-04-15T07:28:42;99230.67;;;10.26;78.15
74403;BME280;62837;51.082;13.744;2023-04-15T07:31:15;99229.72;;;10.30;77.73
74403;BME280;62837;51.082;13.744;2023-04-15T07:33:46;99235.20;;;10.39;78.38
74403;BME280;62837;51.082;13.744;2023-04-15T07:36:16;99236.02;;;10.42;78.12
74403;BME280;62837;51.082;13.744;2023-04-15T07:38:48;99243.66;;;10.53;78.77
74403;BME280;62837;51.082;13.744;2023-04-15T07:41:18;99241.52;;;10.73;78.17
74403;BME280;62837;51.082;13.744;2023-04-15T07:43:50;99240.84;;;10.76;76.51
74403;BME280;62837;51.082;13.744;2023-04-15T07:46:20;99247.06;;;10.68;75.87
74403;BME280;62837;51.082;13.744;2023-04-15T07:48:53;99246.41;;;10.55;75.53
74403;BME280;62837;51.082;13.744;2023-04-15T07:51:23;99249.08;;;10.42;75.37
74403;BME280;62837;51.082;13.744;2023-04-15T07:53:54;99247.08;;;10.29;75.73
74403;BME280;62837;51.082;13.744;2023-04-15T07:56:25;99248.36;;;10.19;75.96
74403;BME280;62837;51.082;13.744;2023-04-15T07:58:56;99251.22;;;10.13;76.25
74403;BME280;62837;51.082;13.744;2023-04-15T08:01:27;99252.73;;;10.09;76.07
74403;BME280;62837;51.082;13.744;2023-04-15T08:03:57;99256.86;;;10.06;76.22
74403;BME280;62837;51.082;13.744;2023-04-15T08:06:29;99262.45;;;10.07;76.48
74403;BME280;62837;51.082;13.744;2023-04-15T08:09:01;99262.52;;;10.06;76.62
74403;BME280;62837;51.082;13.744;2023-04-15T08:11:32;99264.88;;;10.08;76.72
74403;BME280;62837;51.082;13.744;2023-04-15T08:14:02;99269.98;;;10.11;76.79
74403;BME280;62837;51.082;13.744;2023-04-15T08:16:34;99281.52;;;10.10;76.39
74403;BME280;62837;51.082;13.744;2023-04-15T08:19:05;99279.92;;;10.09;76.32
74403;BME280;62837;51.082;13.744;2023-04-15T08:21:37;99282.89;;;10.09;75.99
74403;BME280;62837;51.082;13.744;2023-04-15T08:24:08;99283.48;;;10.08;76.27
74403;BME280;62837;51.082;13.744;2023-04-15T08:26:39;99281.29;;;10.10;76.31
74403;BME280;62837;51.082;13.744;2023-04-15T08:29:10;99285.23;;;10.13;76.45
74403;BME280;62837;51.082;13.744;2023-04-15T08:31:41;99283.31;;;10.16;76.28
74403;BME280;62837;51.082;13.744;2023-04-15T08:34:13;99285.89;;;10.20;76.26
74403;BME280;62837;51.082;13.744;2023-04-15T08:36:44;99285.88;;;10.20;75.92
74403;BME280;62837;51.082;13.744;2023-04-15T08:39:14;99282.02;;;10.23;75.83
74403;BME280;62837;51.082;13.744;2023-04-15T08:41:47;99282.91;;;10.29;75.63
74403;BME280;62837;51.082;13.744;2023-04-15T08:44:22;99281.06;;;10.32;75.44
74403;BME280;62837;51.082;13.744;2023-04-15T08:46:53;99281.70;;;10.37;75.68
74403;BME280;62837;51.082;13.744;2023-04-15T08:49:27;99286.41;;;10.40;75.82
74403;BME280;62837;51.082;13.744;2023-04-15T08:51:59;99291.73;;;10.43;75.82
74403;BME280;62837;51.082;13.744;2023-04-15T08:54:30;99293.64;;;10.44;75.47
74403;BME280;62837;51.082;13.744;2023-04-15T08:57:02;99299.04;;;10.44;75.45
74403;BME280;62837;51.082;13.744;2023-04-15T08:59:33;99299.31;;;10.44;75.20
74403;BME280;62837;51.082;13.744;2023-04-15T09:02:04;99305.36;;;10.43;75.32
74403;BME280;62837;51.082;13.744;2023-04-15T09:04:35;99306.58;;;10.43;75.10
74403;BME280;62837;51.082;13.744;2023-04-15T09:07:06;99309.85;;;10.42;75.02
74403;BME280;62837;51.082;13.744;2023-04-15T09:09:37;99312.77;;;10.42;74.96
74403;BME280;62837;51.082;13.744;2023-04-15T09:12:10;99318.96;;;10.40;74.71
74403;BME280;62837;51.082;13.744;2023-04-15T09:14:44;99322.82;;;10.36;74.30
74403;BME280;62837;51.082;13.744;2023-04-15T09:17:19;99326.73;;;10.26;74.25
74403;BME280;62837;51.082;13.744;2023-04-15T09:19:53;99328.02;;;10.14;74.24
74403;BME280;62837;51.082;13.744;2023-04-15T09:22:37;99329.75;;;10.07;74.02
74403;BME280;62837;51.082;13.744;2023-04-15T09:25:25;99332.26;;;9.99;73.99
74403;BME280;62837;51.082;13.744;2023-04-15T09:27:59;99328.48;;;9.97;73.98
74403;BME280;62837;51.082;13.744;2023-04-15T09:30:30;99337.88;;;9.96;74.00
74403;BME280;62837;51.082;13.744;2023-04-15T09:33:02;99335.03;;;9.95;73.45
74403;BME280;62837;51.082;13.744;2023-04-15T09:35:37;99337.66;;;9.92;73.17
74403;BME280;62837;51.082;13.744;2023-04-15T09:38:09;99342.30;;;9.90;73.36
74403;BME280;62837;51.082;13.744;2023-04-15T09:40:40;99347.09;;;9.84;72.71
74403;BME280;62837;51.082;13.744;2023-04-15T09:43:11;99357.48;;;9.76;72.79
74403;BME280;62837;51.082;13.744;2023-04-15T09:45:48;99362.73;;;9.68;72.80
74403;BME280;62837;51.082;13.744;2023-04-15T09:48:21;99364.28;;;9.62;72.75
74403;BME280;62837;51.082;13.744;2023-04-15T09:50:58;99370.16;;;9.58;72.87
74403;BME280;62837;51.082;13.744;2023-04-15T09:53:33;99371.27;;;9.55;72.69
74403;BME280;62837;51.082;13.744;2023-04-15T09:56:05;99365.72;;;9.54;72.83
74403;BME280;62837;51.082;13.744;2023-04-15T09:58:36;99370.34;;;9.51;72.88
74403;BME280;62837;51.082;13.744;2023-04-15T10:01:09;99368.58;;;9.51;73.36
74403;BME280;62837;51.082;13.744;2023-04-15T10:03:41;99367.80;;;9.54;73.35
74403;BME280;62837;51.082;13.744;2023-04-15T10:06:12;99373.98;;;9.57;73.22
74403;BME280;62837;51.082;13.744;2023-04-15T10:08:43;99373.61;;;9.58;72.93
74403;BME280;62837;51.082;13.744;2023-04-15T10:11:16;99379.98;;;9.59;72.37
74403;BME280;62837;51.082;13.744;2023-04-15T10:13:50;99380.53;;;9.58;72.26
74403;BME280;62837;51.082;13.744;2023-04-15T10:16:21;99385.08;;;9.58;72.35
74403;BME280;62837;51.082;13.744;2023-04-15T10:18:55;99390.73;;;9.58;72.30
74403;BME280;62837;51.082;13.744;2023-04-15T10:21:32;99389.64;;;9.59;72.02
74403;BME280;62837;51.082;13.744;2023-04-15T10:24:04;99390.58;;;9.61;71.77
74403;BME280;62837;51.082;13.744;2023-04-15T10:26:35;99396.39;;;9.61;71.59
74403;BME280;62837;51.082;13.744;2023-04-15T10:29:07;99395.73;;;9.57;71.87
74403;BME280;62837;51.082;13.744;2023-04-15T10:31:39;99407.33;;;9.56;71.88
74403;BME280;62837;51.082;13.744;2023-04-15T10:34:10;99403.04;;;9.56;71.60
74403;BME280;62837;51.082;13.744;2023-04-15T10:36:42;99394.86;;;9.57;71.46
74403;BME280;62837;51.082;13.744;2023-04-15T10:39:38;99397.44;;;9.59;71.61
74403;BME280;62837;51.082;13.744;2023-04-15T10:42:11;99399.69;;;9.58;71.67
74403;BME280;62837;51.082;13.744;2023-04-15T10:44:47;99406.59;;;9.58;71.51
74403;BME280;62837;51.082;13.744;2023-04-15T10:47:20;99402.42;;;9.57;71.16
74403;BME280;62837;51.082;13.744;2023-04-15T10:49:56;99409.30;;;9.55;71.32
74403;BME280;62837;51.082;13.744;2023-04-15T10:52:28;99408.80;;;9.54;71.53
74403;BME280;62837;51.082;13.744;2023-04-15T10:55:14;99404.41;;;9.59;71.71
74403;BME280;62837;51.082;13.744;2023-04-15T10:57:45;99405.50;;;9.70;71.21
74403;BME280;62837;51.082;13.744;2023-04-15T11:00:17;99407.08;;;9.75;70.85
74403;BME280;62837;51.082;13.744;2023-04-15T11:02:53;99408.83;;;9.78;71.00
74403;BME280;62837;51.082;13.744;2023-04-15T11:05:49;99412.77;;;9.86;71.01
74403;BME280;62837;51.082;13.744;2023-04-15T11:08:21;99408.29;;;9.92;70.70
74403;BME280;62837;51.082;13.744;2023-04-15T11:11:11;99418.05;;;9.98;70.82
74403;BME280;62837;51.082;13.744;2023-04-15T11:13:50;99423.31;;;10.01;70.45
74403;BME280;62837;51.082;13.744;2023-04-15T11:16:21;99422.70;;;10.05;70.24
74403;BME280;62837;51.082;13.744;2023-04-15T11:18:55;99433.37;;;10.05;69.94
74403;BME280;62837;51.082;13.744;2023-04-15T11:21:26;99430.70;;;10.08;69.82
74403;BME280;62837;51.082;13.744;2023-04-15T11:23:57;99430.05;;;10.09;69.92
74403;BME280;62837;51.082;13.744;2023-04-15T11:26:30;99432.02;;;10.13;69.69
74403;BME280;62837;51.082;13.744;2023-04-15T11:29:01;99435.77;;;10.15;69.49
74403;BME280;62837;51.082;13.744;2023-04-15T11:31:32;99435.15;;;10.20;69.56
74403;BME280;62837;51.082;13.744;2023-04-15T11:34:03;99440.91;;;10.26;69.77
74403;BME280;62837;51.082;13.744;2023-04-15T11:36:34;99443.59;;;10.31;69.50
74403;BME280;62837;51.082;13.744;2023-04-15T11:39:07;99447.79;;;10.39;69.27
74403;BME280;62837;51.082;13.744;2023-04-15T11:41:39;99445.73;;;10.45;69.17
74403;BME280;62837;51.082;13.744;2023-04-15T11:44:18;99450.82;;;10.50;69.06
74403;BME280;62837;51.082;13.744;2023-04-15T11:46:49;99450.97;;;10.52;68.77
74403;BME280;62837;51.082;13.744;2023-04-15T11:49:30;99453.83;;;10.53;68.53
74403;BME280;62837;51.082;13.744;2023-04-15T11:52:02;99455.76;;;10.55;68.37
74403;BME280;62837;51.082;13.744;2023-04-15T11:54:40;99455.52;;;10.56;68.47
74403;BME280;62837;51.082;13.744;2023-04-15T11:57:10;99458.48;;;10.57;68.05
74403;BME280;62837;51.082;13.744;2023-04-15T11:59:44;99462.11;;;10.57;67.60
74403;BME280;62837;51.082;13.744;2023-04-15T12:02:16;99462.98;;;10.56;67.51
74403;BME280;62837;51.082;13.744;2023-04-15T12:04:48;99466.23;;;10.58;67.63
74403;BME280;62837;51.082;13.744;2023-04-15T12:07:19;99469.91;;;10.60;67.45
74403;BME280;62837;51.082;13.744;2023-04-15T12:09:56;99475.86;;;10.56;67.36
74403;BME280;62837;51.082;13.744;2023-04-15T12:12:28;99477.08;;;10.55;67.43
74403;BME280;62837;51.082;13.744;2023-04-15T12:15:00;99483.58;;;10.52;66.68
74403;BME280;62837;51.082;13.744;2023-04-15T12:17:30;99486.73;;;10.45;67.06
74403;BME280;62837;51.082;13.744;2023-04-15T12:20:25;99491.68;;;10.43;67.04
74403;BME280;62837;51.082;13.744;2023-04-15T12:23:05;99492.56;;;10.44;66.92
74403;BME280;62837;51.082;13.744;2023-04-15T12:25:36;99492.66;;;10.47;67.13
74403;BME280;62837;51.082;13.744;2023-04-15T12:28:12;99493.64;;;10.53;67.36
74403;BME280;62837;51.082;13.744;2023-04-15T12:30:51;99494.91;;;10.61;67.16
74403;BME280;62837;51.082;13.744;2023-04-15T12:33:22;99497.33;;;10.63;66.77
74403;BME280;62837;51.082;13.744;2023-04-15T12:35:52;99502.06;;;10.64;66.76
74403;BME280;62837;51.082;13.744;2023-04-15T12:38:23;99505.91;;;10.60;66.02
74403;BME280;62837;51.082;13.744;2023-04-15T12:40:54;99510.48;;;10.56;66.47
74403;BME280;62837;51.082;13.744;2023-04-15T12:43:25;99509.39;;;10.57;66.51
74403;BME280;62837;51.082;13.744;2023-04-15T12:45:56;99512.54;;;10.55;66.35
74403;BME280;62837;51.082;13.744;2023-04-15T12:48:27;99515.46;;;10.55;66.61
74403;BME280;62837;51.082;13.744;2023-04-15T12:50:58;99512.73;;;10.58;66.69
74403;BME280;62837;51.082;13.744;2023-04-15T12:53:29;99513.44;;;10.62;66.70
74403;BME280;62837;51.082;13.744;2023-04-15T12:56:00;99521.85;;;10.64;66.37
74403;BME280;62837;51.082;13.744;2023-04-15T12:58:30;99524.63;;;10.68;66.39
74403;BME280;62837;51.082;13.744;2023-04-15T13:01:01;99525.13;;;10.68;66.18
74403;BME280;62837;51.082;13.744;2023-04-15T13:03:32;99526.77;;;10.71;66.10
74403;BME280;62837;51.082;13.744;2023-04-15T13:06:04;99531.59;;;10.74;65.92
74403;BME280;62837;51.082;13.744;2023-04-15T13:08:35;99537.48;;;10.76;65.96
74403;BME280;62837;51.082;13.744;2023-04-15T13:11:13;99539.00;;;10.81;66.09
74403;BME280;62837;51.082;13.744;2023-04-15T13:13:44;99539.48;;;10.83;65.69
74403;BME280;62837;51.082;13.744;2023-04-15T13:16:15;99543.55;;;10.85;65.56
74403;BME280;62837;51.082;13.744;2023-04-15T13:18:45;99542.16;;;10.86;65.37
74403;BME280;62837;51.082;13.744;2023-04-15T13:21:16;99542.65;;;10.87;65.04